Time;durP1;ratioP1;P1;durP2;ratioP2;P2;SDS_P1;SDS_P2;PMS_P1;PMS_P2;Temp;Humidity;BMP_temperature;BMP_pressure;BME280_temperature;BME280_humidity;BME280_pressure;Samples;Min_cycle;Max_cycle;Signal;HPM_P1;HPM_P2
2022/11/20 00:01:11;;;;;;;37.70;26.73;;;;;;;-3.53;91.18;99166.75;1692851;84;20928;-82
2022/11/20 00:03:38;;;;;;;36.65;24.72;;;;;;;-3.51;91.15;99165.90;1692737;84;20892;-82
2022/11/20 00:06:08;;;;;;;42.73;29.87;;;;;;;-3.51;91.15;99169.73;1694812;84;20987;-82
2022/11/20 00:08:36;;;;;;;37.03;26.02;;;;;;;-3.52;91.07;99174.42;1693844;84;20983;-82
2022/11/20 00:11:07;;;;;;;38.85;26.45;;;;;;;-3.49;91.16;99174.41;1692707;84;21911;-82
2022/11/20 00:13:34;;;;;;;42.58;29.30;;;;;;;-3.49;91.12;99170.59;1694926;84;20911;-81
2022/11/20 00:16:03;;;;;;;40.78;26.48;;;;;;;-3.53;91.08;99168.87;1698714;83;20986;-81
2022/11/20 00:18:31;;;;;;;39.98;25.92;;;;;;;-3.53;91.13;99170.14;1659110;84;21479;-81
2022/11/20 00:21:05;;;;;;;39.15;26.45;;;;;;;-3.56;91.12;99167.59;1635291;86;20966;-81
2022/11/20 00:23:32;;;;;;;42.20;28.47;;;;;;;-3.51;91.18;99171.00;1661427;84;21989;-81
2022/11/20 00:26:04;;;;;;;42.73;27.52;;;;;;;-3.51;91.17;99173.55;1691795;83;21503;-82
2022/11/20 00:28:31;;;;;;;40.85;28.42;;;;;;;-3.51;91.17;99172.28;1693710;84;20946;-82
2022/11/20 00:31:04;;;;;;;41.80;26.93;;;;;;;-3.49;91.20;99169.31;1694200;83;21100;-81
2022/11/20 00:33:31;;;;;;;37.45;25.40;;;;;;;-3.46;91.19;99169.31;1689317;84;20958;-81
2022/11/20 00:36:07;;;;;;;37.48;26.37;;;;;;;-3.46;91.17;99166.76;1692747;83;20985;-82
2022/11/20 00:38:34;;;;;;;37.98;26.35;;;;;;;-3.43;91.20;99165.48;1692244;83;20956;-81
2022/11/20 00:41:04;;;;;;;38.28;24.07;;;;;;;-3.40;91.18;99163.36;1669171;85;21499;-82
2022/11/20 00:43:31;;;;;;;39.10;24.35;;;;;;;-3.38;91.16;99159.95;1688614;83;20961;-81
2022/11/20 00:46:07;;;;;;;38.40;26.30;;;;;;;-3.35;91.10;99163.36;1693687;84;20985;-81
2022/11/20 00:48:34;;;;;;;40.40;26.60;;;;;;;-3.38;90.97;99159.95;1693065;83;21313;-81
2022/11/20 00:51:01;;;;;;;41.95;28.17;;;;;;;-3.34;91.00;99167.61;1695343;83;20895;-81
2022/11/20 00:53:28;;;;;;;39.30;25.37;;;;;;;-3.29;91.12;99159.09;1693935;83;20994;-81
2022/11/20 00:55:59;;;;;;;39.70;25.10;;;;;;;-3.29;90.83;99159.53;1694282;84;20974;-81
2022/11/20 00:58:31;;;;;;;41.83;27.25;;;;;;;-3.30;90.82;99164.22;1695466;83;20990;-81
2022/11/20 01:01:03;;;;;;;43.28;27.85;;;;;;;-3.27;90.99;99162.94;1690866;84;21804;-81
2022/11/20 01:03:35;;;;;;;37.40;26.75;;;;;;;-3.22;91.11;99167.59;1693369;84;20887;-81
2022/11/20 01:06:05;;;;;;;37.78;25.57;;;;;;;-3.23;91.21;99160.80;1647969;86;20938;-81
2022/11/20 01:08:36;;;;;;;40.08;26.27;;;;;;;-3.22;91.19;99154.83;1644722;86;20914;-81
2022/11/20 01:11:09;;;;;;;38.80;25.80;;;;;;;-3.22;91.13;99158.66;1692072;83;20959;-81
2022/11/20 01:13:36;;;;;;;38.78;25.90;;;;;;;-3.31;90.98;99165.05;1692868;83;21314;-82
2022/11/20 01:16:07;;;;;;;41.98;25.27;;;;;;;-3.32;91.26;99156.55;1690326;84;20975;-80
2022/11/20 01:18:35;;;;;;;37.35;25.57;;;;;;;-3.40;90.79;99159.09;1686794;83;20967;-81
2022/11/20 01:21:11;;;;;;;36.48;24.47;;;;;;;-3.54;90.68;99160.80;1684783;84;21545;-81
2022/11/20 01:23:40;;;;;;;34.48;23.12;;;;;;;-3.62;90.72;99162.48;1686331;85;20926;-81
2022/11/20 01:26:11;;;;;;;38.50;25.43;;;;;;;-3.69;90.69;99158.25;1684911;84;21070;-81
2022/11/20 01:28:40;;;;;;;35.28;23.62;;;;;;;-3.76;90.71;99166.73;1699011;83;20987;-81
2022/11/20 01:31:17;;;;;;;37.78;25.02;;;;;;;-3.82;90.81;99165.86;1699833;83;20971;-81
2022/11/20 01:33:45;;;;;;;;;;;;;;;-3.85;90.83;99160.77;1703995;83;21552;-81
2022/11/20 01:36:13;;;;;;;36.73;23.75;;;;;;;-3.89;90.81;99165.45;1703716;83;20459;-81
2022/11/20 01:38:40;;;;;;;33.80;24.20;;;;;;;-3.92;90.83;99166.72;1696985;83;21040;-81
2022/11/20 01:41:09;;;;;;;44.03;24.92;;;;;;;-3.94;90.90;99163.30;1698325;83;20890;-81
2022/11/20 01:43:36;;;;;;;43.13;26.87;;;;;;;-3.93;91.02;99159.89;1699904;83;20974;-81
2022/11/20 01:46:19;;;;;;;36.48;25.65;;;;;;;-3.90;91.09;99162.45;1701626;83;21001;-81
2022/11/20 01:49:03;;;;;;;42.95;27.70;;;;;;;-3.88;91.13;99154.38;1700078;83;21922;-81
2022/11/20 01:51:42;;;;;;;41.65;27.15;;;;;;;-3.83;91.25;99159.07;1701115;83;21277;-81
2022/11/20 01:54:17;;;;;;;37.25;24.95;;;;;;;-3.76;91.34;99151.42;1696270;83;20924;-81
2022/11/20 01:56:46;;;;;;;44.35;27.65;;;;;;;-3.70;91.37;99162.91;1699184;83;20983;-81
2022/11/20 01:59:16;;;;;;;48.33;28.20;;;;;;;-3.68;91.40;99159.94;1700872;83;21423;-81
2022/11/20 02:01:43;;;;;;;42.43;28.67;;;;;;;-3.64;91.38;99161.63;1700970;83;20974;-81
2022/11/20 02:04:11;;;;;;;38.63;26.42;;;;;;;-3.60;91.38;99155.70;1704878;83;21742;-81
2022/11/20 02:06:52;;;;;;;43.87;28.35;;;;;;;-3.58;91.38;99161.66;1699906;83;21458;-81
2022/11/20 02:09:18;;;;;;;40.03;25.57;;;;;;;-3.55;91.42;99165.92;1699226;83;20953;-81
2022/11/20 02:11:45;;;;;;;40.73;27.20;;;;;;;-3.54;91.39;99160.80;1701882;83;20946;-81
2022/11/20 02:14:12;;;;;;;40.77;26.97;;;;;;;-3.54;91.36;99160.80;1703701;83;21461;-81
2022/11/20 02:16:46;;;;;;;43.98;28.05;;;;;;;-3.52;91.44;99158.27;1696506;83;21245;-81
2022/11/20 02:19:24;;;;;;;42.00;27.02;;;;;;;-3.44;91.36;99154.02;1691962;84;20911;-81
2022/11/20 02:22:30;;;;;;;44.00;27.52;;;;;;;-3.46;91.41;99156.55;1693820;83;21481;-81
2022/11/20 02:25:00;;;;;;;41.50;27.35;;;;;;;-3.45;91.47;99153.13;1692377;83;20959;-81
2022/11/20 02:27:28;;;;;;;45.67;28.27;;;;;;;-3.47;91.51;99159.96;1693334;84;20939;-81
2022/11/20 02:29:59;;;;;;;39.95;28.32;;;;;;;-3.45;91.57;99160.79;1695980;83;21066;-81
2022/11/20 02:32:33;;;;;;;42.62;27.55;;;;;;;-3.46;91.55;99154.00;1692031;84;21489;-81
2022/11/20 02:35:09;;;;;;;40.30;27.55;;;;;;;-3.46;91.55;99152.72;1694750;84;21504;-81
2022/11/20 02:37:40;;;;;;;49.85;29.72;;;;;;;-3.47;91.51;99153.58;1691132;84;21002;-81
2022/11/20 02:40:08;;;;;;;43.30;26.65;;;;;;;-3.49;91.43;99154.00;1697732;84;20991;-81
2022/11/20 02:42:36;;;;;;;38.13;23.67;;;;;;;-3.50;91.43;99156.53;1693067;84;21074;-81
2022/11/20 02:45:07;;;;;;;38.30;27.60;;;;;;;-3.53;91.44;99152.28;1692171;84;20977;-81
2022/11/20 02:47:34;;;;;;;36.08;23.67;;;;;;;-3.57;91.40;99154.42;1691949;84;20964;-81
2022/11/20 02:50:01;;;;;;;38.35;23.12;;;;;;;-3.60;91.40;99150.59;1692166;83;21030;-81
2022/11/20 02:52:28;;;;;;;41.25;24.40;;;;;;;-3.63;91.39;99153.14;1693377;83;20959;-81
2022/11/20 02:54:54;;;;;;;38.92;26.45;;;;;;;-3.66;91.41;99153.14;1692382;84;21238;-81
2022/11/20 02:57:21;;;;;;;37.25;25.20;;;;;;;-3.66;91.41;99140.39;1692573;84;21052;-81
2022/11/20 02:59:48;;;;;;;39.37;24.33;;;;;;;-3.64;91.44;99147.59;1691763;84;20935;-81
2022/11/20 03:02:14;;;;;;;43.43;27.23;;;;;;;-3.62;91.49;99148.02;1691379;84;21867;-82
2022/11/20 03:04:41;;;;;;;39.27;25.97;;;;;;;-3.69;91.57;99150.59;1693483;84;20945;-81
2022/11/20 03:07:09;;;;;;;38.67;24.97;;;;;;;-3.66;91.48;99151.88;1695978;83;21038;-81
2022/11/20 03:09:36;;;;;;;34.00;23.60;;;;;;;-3.67;91.41;99145.05;1694416;84;20911;-81
2022/11/20 03:12:03;;;;;;;32.35;23.18;;;;;;;-3.71;91.61;99152.28;1695162;83;20935;-81
2022/11/20 03:14:30;;;;;;;32.35;22.70;;;;;;;-3.66;91.44;99153.14;1692422;84;28734;-81
2022/11/20 03:16:57;;;;;;;28.63;20.93;;;;;;;-3.66;91.36;99150.59;1697577;83;20935;-81
2022/11/20 03:19:23;;;;;;;36.65;24.70;;;;;;;-3.66;91.35;99150.59;1699507;83;21504;-81
2022/11/20 03:21:50;;;;;;;37.03;25.23;;;;;;;-3.68;91.32;99151.01;1702506;83;20915;-81
2022/11/20 03:24:17;;;;;;;37.43;25.60;;;;;;;-3.70;91.33;99143.77;1696933;83;22221;-81
2022/11/20 03:26:44;;;;;;;37.97;23.50;;;;;;;-3.73;91.37;99148.44;1697593;83;20979;-81
2022/11/20 03:29:10;;;;;;;31.53;24.33;;;;;;;-3.72;91.36;99141.66;1696344;83;21696;-81
2022/11/20 03:31:40;;;;;;;34.45;24.40;;;;;;;-3.74;91.33;99142.92;1699640;83;21063;-81
2022/11/20 03:34:09;;;;;;;35.70;24.18;;;;;;;-3.72;91.30;99142.94;1697950;83;20947;-81
2022/11/20 03:36:42;;;;;;;34.18;24.18;;;;;;;-3.72;91.36;99142.94;1702745;83;20955;-81
2022/11/20 03:39:09;;;;;;;36.98;23.67;;;;;;;-3.71;91.29;99135.70;1700584;83;20918;-81
2022/11/20 03:41:41;;;;;;;37.37;24.40;;;;;;;-3.73;91.16;99137.39;1704451;83;20962;-81
2022/11/20 03:44:10;;;;;;;38.35;25.27;;;;;;;-3.74;91.17;99135.70;1704641;83;21040;-81
2022/11/20 03:46:37;;;;;;;41.98;24.77;;;;;;;-3.76;91.25;99129.73;1697534;83;20907;-81
2022/11/20 03:49:04;;;;;;;39.33;26.15;;;;;;;-3.78;91.23;99131.42;1699308;83;20924;-81
2022/11/20 03:51:34;;;;;;;38.05;25.77;;;;;;;-3.80;91.22;99131.87;1702643;83;20923;-81
2022/11/20 03:54:04;;;;;;;38.75;26.82;;;;;;;-3.83;91.23;99131.02;1704274;83;21065;-81
2022/11/20 03:56:35;;;;;;;35.65;24.90;;;;;;;-3.82;91.23;99122.93;1704278;83;21456;-81
2022/11/20 03:59:03;;;;;;;37.50;27.13;;;;;;;-3.85;91.13;99127.60;1701539;83;20974;-81
2022/11/20 04:01:37;;;;;;;37.23;26.02;;;;;;;-3.87;91.19;99118.24;1700483;83;20963;-81
2022/11/20 04:04:04;;;;;;;33.85;23.92;;;;;;;-3.88;91.21;99122.50;1697638;83;21536;-81
2022/11/20 04:06:37;;;;;;;;;;;;;;;-3.90;91.16;99119.52;1702274;83;21456;-81
2022/11/20 04:09:04;;;;;;;37.50;25.02;;;;;;;-3.92;91.08;99115.70;1703825;83;21129;-81
2022/11/20 04:11:34;;;;;;;40.95;26.40;;;;;;;-3.94;91.09;99119.95;1700629;83;20931;-81
2022/11/20 04:14:04;;;;;;;41.48;26.23;;;;;;;-3.96;91.07;99117.81;1700976;83;20978;-81
2022/11/20 04:16:34;;;;;;;37.25;26.17;;;;;;;-3.93;91.23;99119.52;1699293;83;20951;-81
2022/11/20 04:19:05;;;;;;;44.35;26.30;;;;;;;-3.94;91.21;99109.75;1691257;84;21441;-81
2022/11/20 04:21:31;;;;;;;42.25;27.30;;;;;;;-3.93;91.31;99111.44;1694795;84;21896;-82
2022/11/20 04:23:58;;;;;;;42.00;27.03;;;;;;;-3.92;91.28;99113.16;1695700;84;21437;-81
2022/11/20 04:26:28;;;;;;;41.20;27.13;;;;;;;-3.94;91.08;99109.75;1692980;83;20977;-81
2022/11/20 04:28:55;;;;;;;42.78;28.05;;;;;;;-3.97;91.02;99102.09;1692682;84;20955;-82
2022/11/20 04:31:26;;;;;;;39.63;27.15;;;;;;;-4.02;90.88;99106.33;1693918;84;21033;-81
2022/11/20 04:33:53;;;;;;;39.48;26.93;;;;;;;-4.06;90.86;99102.09;1679038;84;21457;-82
2022/11/20 04:36:26;;;;;;;43.87;29.48;;;;;;;-4.15;90.77;99097.80;1693107;83;20876;-81
2022/11/20 04:38:58;;;;;;;47.50;27.85;;;;;;;-4.24;90.69;99091.84;1693691;83;20896;-81
2022/11/20 04:41:29;;;;;;;41.63;28.05;;;;;;;-4.36;90.63;99101.16;1689963;84;21077;-81
2022/11/20 04:44:04;;;;;;;40.12;27.30;;;;;;;-4.50;90.46;99092.63;1691273;83;20987;-81
2022/11/20 04:46:35;;;;;;;37.78;23.92;;;;;;;-4.65;90.28;99101.48;1694521;84;21055;-81
2022/11/20 04:49:02;;;;;;;43.50;28.00;;;;;;;-4.80;90.26;99091.66;1693966;84;20920;-81
2022/11/20 04:51:28;;;;;;;38.00;25.65;;;;;;;-4.93;90.33;99096.25;1694429;83;20974;-81
2022/11/20 04:53:58;;;;;;;42.48;26.23;;;;;;;-5.05;90.34;99097.48;1691516;84;21428;-81
2022/11/20 04:56:25;;;;;;;43.30;27.17;;;;;;;-5.17;90.41;99098.27;1696577;83;20966;-81
2022/11/20 04:58:51;;;;;;;42.67;27.93;;;;;;;-5.28;90.42;99094.80;1693124;83;21924;-81
2022/11/20 05:01:22;;;;;;;41.20;28.47;;;;;;;-5.50;90.38;99067.09;1692149;83;21432;-81
2022/11/20 05:03:49;;;;;;;44.08;29.00;;;;;;;-5.52;90.35;99085.30;1698694;83;20918;-82
2022/11/20 05:06:19;;;;;;;44.42;25.80;;;;;;;-5.65;90.32;99076.75;1695330;84;20907;-81
2022/11/20 05:08:46;;;;;;;49.30;29.15;;;;;;;-5.74;90.33;99086.83;1694495;84;21903;-82
2022/11/20 05:11:20;;;;;;;49.40;28.67;;;;;;;-5.83;90.37;99079.98;1692263;84;21046;-82
2022/11/20 05:13:47;;;;;;;42.78;26.82;;;;;;;-5.89;90.53;99077.39;1692756;83;21038;-82
2022/11/20 05:16:20;;;;;;;41.20;26.90;;;;;;;-5.95;90.53;99071.02;1692603;84;20880;-81
2022/11/20 05:18:47;;;;;;;42.83;27.30;;;;;;;-6.02;90.50;99075.61;1696355;83;21006;-83
2022/11/20 05:21:15;;;;;;;49.13;30.68;;;;;;;-6.08;90.46;99075.13;1695983;83;20963;-82
2022/11/20 05:23:43;;;;;;;43.65;27.82;;;;;;;-6.12;90.65;99070.45;1693956;84;21209;-82
2022/11/20 05:26:17;;;;;;;51.25;30.23;;;;;;;-6.15;90.68;99062.80;1694307;83;20939;-83
2022/11/20 05:28:43;;;;;;;46.70;28.92;;;;;;;-6.15;90.79;99065.34;1666391;84;21125;-82
2022/11/20 05:31:20;;;;;;;50.28;29.80;;;;;;;-6.11;90.98;99064.52;1699000;83;20990;-82
2022/11/20 05:33:47;;;;;;;45.73;30.15;;;;;;;-6.04;91.03;99067.14;1698250;83;20931;-82
2022/11/20 05:36:14;;;;;;;49.08;30.43;;;;;;;-5.98;91.08;99069.73;1696660;83;21039;-82
2022/11/20 05:38:42;;;;;;;46.75;28.62;;;;;;;-5.91;91.21;99066.35;1698725;83;20957;-82
2022/11/20 05:41:16;;;;;;;45.43;28.15;;;;;;;-5.81;91.27;99068.14;1697140;84;21495;-82
2022/11/20 05:43:46;;;;;;;49.85;28.95;;;;;;;-5.71;91.36;99061.02;1699197;84;20955;-82
2022/11/20 05:46:17;;;;;;;52.73;29.90;;;;;;;-5.65;91.23;99059.79;1698747;83;20919;-81
2022/11/20 05:48:45;;;;;;;47.85;29.67;;;;;;;-5.60;91.14;99053.88;1698554;84;21196;-81
2022/11/20 05:51:15;;;;;;;49.63;29.32;;;;;;;-5.59;91.06;99053.05;1699121;83;20998;-81
2022/11/20 05:53:45;;;;;;;53.60;30.25;;;;;;;-5.58;91.03;99049.66;1694738;84;20923;-81
2022/11/20 05:56:20;;;;;;;54.73;31.37;;;;;;;-5.57;91.08;99053.89;1697802;83;20971;-81
2022/11/20 05:58:48;;;;;;;51.58;31.10;;;;;;;-5.54;91.17;99046.31;1696751;83;21521;-81
2022/11/20 06:01:21;;;;;;;47.98;30.15;;;;;;;-5.53;91.23;99055.63;1698362;84;21168;-81
2022/11/20 06:03:50;;;;;;;47.38;30.00;;;;;;;-5.51;91.31;99056.50;1696641;84;20959;-82
2022/11/20 06:06:18;;;;;;;50.90;31.97;;;;;;;-5.46;91.43;99058.63;1692622;83;21466;-82
2022/11/20 06:08:45;;;;;;;49.25;30.62;;;;;;;-5.43;91.48;99052.31;1692578;84;20983;-83
2022/11/20 06:11:14;;;;;;;44.38;28.40;;;;;;;-5.37;91.67;99053.62;1665595;84;20969;-82
2022/11/20 06:13:41;;;;;;;48.92;30.40;;;;;;;-5.26;91.85;99056.23;1693223;83;21045;-82
2022/11/20 06:16:09;;;;;;;44.67;29.40;;;;;;;-5.16;92.07;99052.87;1658420;84;21081;-80
2022/11/20 06:18:36;;;;;;;39.03;23.60;;;;;;;-5.06;92.00;99052.51;1656297;85;20949;-81
2022/11/20 06:21:08;;;;;;;47.73;28.40;;;;;;;-5.00;91.93;99049.98;1656881;84;20901;-81
2022/11/20 06:23:36;;;;;;;43.33;26.40;;;;;;;-5.00;91.67;99049.98;1695022;83;20951;-82
2022/11/20 06:26:13;;;;;;;42.48;27.37;;;;;;;-5.05;91.40;99053.77;1692005;83;21845;-83
2022/11/20 06:28:40;;;;;;;35.58;23.83;;;;;;;-5.08;91.31;99054.19;1691987;83;24233;-85
2022/11/20 06:31:07;;;;;;;39.92;25.17;;;;;;;-5.13;91.18;99058.40;1692925;83;20956;-82
2022/11/20 06:33:34;;;;;;;36.03;22.80;;;;;;;-5.20;91.04;99062.19;1692288;84;20880;-81
2022/11/20 06:36:02;;;;;;;36.98;25.48;;;;;;;-5.29;90.83;99058.33;1694107;83;20958;-82
2022/11/20 06:38:29;;;;;;;35.05;23.50;;;;;;;-5.38;90.72;99068.44;1670854;84;21017;-82
2022/11/20 06:40:55;;;;;;;34.60;23.93;;;;;;;-5.43;90.78;99068.85;1694524;83;20954;-82
2022/11/20 06:43:24;;;;;;;39.95;26.20;;;;;;;-5.46;90.83;99070.08;1656931;84;21093;-82
2022/11/20 06:45:55;;;;;;;39.27;24.55;;;;;;;-5.50;90.90;99069.64;1658447;84;20968;-82
2022/11/20 06:48:23;;;;;;;37.23;25.05;;;;;;;-5.50;90.92;99067.09;1665298;84;20933;-82
2022/11/20 06:50:49;;;;;;;36.50;23.83;;;;;;;-5.56;90.78;99065.78;1690896;83;21900;-82
2022/11/20 06:53:16;;;;;;;42.60;26.75;;;;;;;-5.58;90.81;99065.77;1690545;84;20964;-82
2022/11/20 06:55:47;;;;;;;42.80;28.75;;;;;;;-5.60;90.78;99065.31;1689983;84;20920;-84
2022/11/20 06:58:15;;;;;;;38.08;25.45;;;;;;;-5.59;90.91;99072.13;1690247;83;20875;-83
2022/11/20 07:00:42;;;;;;;38.55;24.32;;;;;;;-5.56;90.92;99065.78;1667905;84;20980;-83
2022/11/20 07:03:11;;;;;;;38.53;25.30;;;;;;;-5.54;90.95;99069.20;1665257;84;21736;-83
2022/11/20 07:05:38;;;;;;;35.85;24.20;;;;;;;-5.52;90.91;99072.58;1668724;85;20911;-83
2022/11/20 07:08:05;;;;;;;36.75;24.77;;;;;;;-5.48;90.99;99071.78;1662141;85;20971;-83
2022/11/20 07:10:33;;;;;;;38.23;23.90;;;;;;;-5.45;90.96;99076.88;1659365;86;21491;-84
2022/11/20 07:12:59;;;;;;;38.85;25.12;;;;;;;-5.37;90.99;99080.33;1695683;83;20955;-84
2022/11/20 07:15:26;;;;;;;39.35;26.05;;;;;;;-5.33;90.96;99073.13;1681299;84;21075;-84
2022/11/20 07:17:53;;;;;;;38.70;25.02;;;;;;;-5.25;91.07;99067.67;1692336;83;20947;-84
2022/11/20 07:20:20;;;;;;;36.28;23.83;;;;;;;-5.19;91.05;99062.61;1681040;84;20971;-84
2022/11/20 07:22:47;;;;;;;35.50;21.70;;;;;;;-5.12;90.81;99062.67;1680188;84;20961;-84
2022/11/20 07:25:13;;;;;;;74.97;43.53;;;;;;;-5.12;90.81;99062.67;1632860;86;21914;-84
2022/11/20 07:27:40;;;;;;;43.75;27.87;;;;;;;-5.14;90.64;99065.62;1680777;84;21508;-84
2022/11/20 07:30:07;;;;;;;40.47;24.67;;;;;;;-5.14;90.64;99071.98;1661039;84;20938;-82
2022/11/20 07:32:34;;;;;;;166.32;98.45;;;;;;;-5.12;90.68;99066.48;1693111;83;20918;-82
2022/11/20 07:35:00;;;;;;;45.17;29.27;;;;;;;-5.04;90.92;99066.07;1690974;84;20919;-84
2022/11/20 07:37:27;;;;;;;55.93;35.87;;;;;;;-4.95;90.91;99068.25;1694164;84;20975;-83
2022/11/20 07:39:54;;;;;;;60.55;36.08;;;;;;;-4.94;90.75;99057.64;1691458;83;21057;-83
2022/11/20 07:42:20;;;;;;;46.23;31.33;;;;;;;-4.97;90.57;99062.72;1670579;84;20974;-83
2022/11/20 07:44:48;;;;;;;43.05;29.12;;;;;;;-5.01;90.51;99066.11;1671211;84;21165;-83
2022/11/20 07:47:15;;;;;;;50.15;31.82;;;;;;;-5.04;90.54;99063.13;1699111;83;20954;-84
2022/11/20 07:49:41;;;;;;;57.90;36.80;;;;;;;-5.11;90.33;99059.27;1692248;83;20954;-84
2022/11/20 07:52:08;;;;;;;51.40;33.85;;;;;;;-5.15;90.29;99062.63;1696165;83;21596;-84
2022/11/20 07:54:35;;;;;;;47.03;30.70;;;;;;;-5.20;90.20;99063.46;1693570;83;21044;-84
2022/11/20 07:57:01;;;;;;;47.25;28.98;;;;;;;-5.26;90.01;99063.44;1696247;84;20942;-84
2022/11/20 07:59:28;;;;;;;43.00;27.70;;;;;;;-5.34;89.80;99069.33;1701202;83;21475;-84
2022/11/20 08:01:55;;;;;;;33.97;24.30;;;;;;;-5.44;89.62;99060.34;1701316;83;20915;-83
2022/11/20 08:04:23;;;;;;;41.10;25.75;;;;;;;-5.48;89.63;99057.78;1692518;83;21056;-83
2022/11/20 08:06:49;;;;;;;39.55;26.20;;;;;;;-5.47;89.88;99059.48;1695751;83;20910;-83
2022/11/20 08:09:16;;;;;;;41.73;27.37;;;;;;;-5.39;90.00;99059.11;1693848;83;20926;-83
2022/11/20 08:14:27;;;;;;;52.33;33.45;;;;;;;-5.13;90.19;99049.06;1693801;83;20939;-84
2022/11/20 08:16:54;;;;;;;52.05;33.85;;;;;;;-4.98;90.30;99049.58;1693781;83;21872;-82
2022/11/20 08:19:21;;;;;;;58.37;37.67;;;;;;;-4.99;89.73;99056.77;1696300;83;21020;-80
2022/11/20 08:21:47;;;;;;;77.65;44.55;;;;;;;-5.03;89.65;99051.25;1697773;83;20971;-85
2022/11/20 08:24:14;;;;;;;67.27;41.85;;;;;;;-5.02;89.71;99049.12;1699886;83;20935;-82
2022/11/20 08:26:41;;;;;;;75.80;44.17;;;;;;;-4.73;90.37;99045.00;1698052;83;21001;-86
2022/11/20 08:29:08;;;;;;;92.82;55.43;;;;;;;-4.73;90.37;99045.00;1699210;83;21156;-86
2022/11/20 08:31:35;;;;;;;85.67;53.02;;;;;;;-4.63;90.07;99042.47;1700201;83;21452;-96
2022/11/20 08:34:04;;;;;;;72.03;42.95;;;;;;;-4.55;89.92;99036.98;1676979;84;20990;-88
2022/11/20 08:36:34;;;;;;;63.38;38.48;;;;;;;-4.42;90.08;99039.98;1699442;83;20887;-87
2022/11/20 08:39:01;;;;;;;45.58;29.48;;;;;;;-4.28;89.98;99038.31;1698895;84;20900;-87
2022/11/20 08:41:27;;;;;;;41.28;26.05;;;;;;;-4.02;90.32;99029.83;1698474;83;21055;-85
2022/11/20 08:43:57;;;;;;;54.47;37.97;;;;;;;-3.76;90.54;99030.25;1674640;84;21081;-85
2022/11/20 08:46:36;;;;;;;48.45;31.68;;;;;;;-3.59;90.46;99025.97;1698703;84;20964;-85
2022/11/20 08:49:04;;;;;;;43.70;29.52;;;;;;;-3.56;89.97;99018.30;1698482;83;20985;-86
2022/11/20 08:51:31;;;;;;;46.68;30.23;;;;;;;-3.51;89.77;99021.70;1694559;83;20929;-80
2022/11/20 08:54:28;;;;;;;48.63;29.92;;;;;;;-3.52;89.49;99013.64;1697609;83;21062;-84
2022/11/20 08:56:55;;;;;;;45.05;29.15;;;;;;;-3.45;89.58;99009.36;1692622;83;21484;-84
2022/11/20 08:59:21;;;;;;;44.42;27.87;;;;;;;-3.40;89.46;99008.49;1705046;83;21001;-85
2022/11/20 09:01:48;;;;;;;45.60;28.43;;;;;;;-3.41;89.11;99005.96;1697758;83;20979;-84
2022/11/20 09:04:15;;;;;;;45.77;29.83;;;;;;;-3.48;88.87;99002.55;1698160;83;20999;-89
2022/11/20 09:06:42;;;;;;;36.83;26.68;;;;;;;-3.52;89.28;98995.77;1698783;83;21442;-87
2022/11/20 09:09:08;;;;;;;37.70;25.57;;;;;;;-3.26;89.83;98999.95;1698489;83;21023;-86
2022/11/20 09:11:35;;;;;;;44.90;28.38;;;;;;;-3.24;89.28;99002.09;1700955;83;21644;-86
2022/11/20 09:14:02;;;;;;;39.23;26.27;;;;;;;-3.13;89.78;99006.73;1696441;84;20927;-86
2022/11/20 09:16:30;;;;;;;48.52;28.05;;;;;;;-3.04;89.57;99013.06;1699676;84;21011;-85
2022/11/20 09:18:57;;;;;;;40.65;27.25;;;;;;;-3.01;89.35;99011.77;1698246;83;21916;-87
2022/11/20 09:21:24;;;;;;;42.10;25.88;;;;;;;-2.89;89.47;99004.91;1667537;85;20938;-87
2022/11/20 09:23:51;;;;;;;42.70;28.30;;;;;;;-2.97;88.80;99005.81;1652621;84;21039;-87
2022/11/20 09:26:19;;;;;;;45.13;29.03;;;;;;;-2.98;88.75;99010.91;1694204;84;20975;-87
2022/11/20 09:28:46;;;;;;;49.88;30.50;;;;;;;-3.10;88.41;99011.82;1693564;83;21080;-85
2022/11/20 09:31:23;;;;;;;53.33;33.00;;;;;;;-3.31;88.14;99009.33;1693771;84;20914;-85
2022/11/20 09:33:49;;;;;;;49.33;31.05;;;;;;;-3.42;88.75;99005.12;1691472;83;21002;-86
2022/11/20 09:36:18;;;;;;;56.50;35.20;;;;;;;-3.42;89.23;99006.39;1694052;83;20993;-86
2022/11/20 09:38:46;;;;;;;52.75;33.58;;;;;;;-3.46;89.10;99003.41;1696593;83;21555;-85
2022/11/20 09:41:42;;;;;;;58.10;35.52;;;;;;;-3.61;89.02;99004.30;1671768;83;20996;-85
2022/11/20 09:44:48;;;;;;;59.50;34.20;;;;;;;-3.69;89.14;99002.62;1697685;83;21543;-85
2022/11/20 09:47:44;;;;;;;57.10;34.00;;;;;;;-3.71;89.47;99006.43;1658156;83;20985;-86
2022/11/20 09:50:34;;;;;;;59.83;34.05;;;;;;;-3.65;89.75;99001.74;1643989;84;20900;-86
2022/11/20 09:53:06;;;;;;;53.98;34.85;;;;;;;-3.49;90.10;99003.42;1666491;84;21157;-85
2022/11/20 09:55:34;;;;;;;48.35;30.00;;;;;;;-3.40;89.76;99004.66;1657730;85;20977;-85
2022/11/20 09:58:05;;;;;;;47.73;30.25;;;;;;;-3.33;89.82;98995.70;1637399;86;21260;-86
2022/11/20 10:00:33;;;;;;;43.98;28.67;;;;;;;-3.23;89.93;98987.17;1665399;84;21453;-86
2022/11/20 10:03:15;;;;;;;47.55;29.98;;;;;;;-3.04;90.23;98982.42;1661808;85;21002;-85
2022/11/20 10:05:46;;;;;;;48.83;31.25;;;;;;;-2.80;90.30;98981.87;1666055;84;20953;-85
2022/11/20 10:08:45;;;;;;;52.50;28.92;;;;;;;-2.53;90.42;98979.16;1669349;85;20918;-86
2022/11/20 10:11:17;;;;;;;46.33;29.02;;;;;;;-2.38;89.96;98973.11;1657948;85;21276;-86
2022/11/20 10:14:07;;;;;;;47.70;29.23;;;;;;;-2.35;89.64;98967.09;1669312;84;20965;-86
2022/11/20 10:17:10;;;;;;;45.98;28.17;;;;;;;-2.35;89.43;98961.98;1660457;84;21041;-86
2022/11/20 10:20:03;;;;;;;50.03;29.63;;;;;;;-2.55;88.91;98957.89;1653726;84;20981;-86
2022/11/20 10:22:53;;;;;;;43.85;29.18;;;;;;;-2.66;89.01;98969.02;1619952;86;20907;-86
2022/11/20 10:25:27;;;;;;;54.33;31.30;;;;;;;-2.70;89.45;98965.64;1636287;86;21126;-86
2022/11/20 10:28:14;;;;;;;50.98;33.15;;;;;;;-2.57;89.55;98958.76;1648804;86;20977;-86
2022/11/20 10:30:46;;;;;;;45.28;29.52;;;;;;;-2.59;89.31;98964.30;1639292;86;20984;-86
2022/11/20 10:33:23;;;;;;;48.25;30.00;;;;;;;-2.53;89.46;98958.70;1641174;86;21025;-86
2022/11/20 10:36:03;;;;;;;46.70;28.10;;;;;;;-2.49;89.37;98953.16;1637629;86;20974;-85
2022/11/20 10:38:43;;;;;;;45.67;28.27;;;;;;;-2.35;89.60;98950.08;1641180;86;21936;-86
2022/11/20 10:41:30;;;;;;;44.63;27.55;;;;;;;-2.31;89.33;98949.18;1639223;86;20946;-87
2022/11/20 10:47:14;;;;;;;47.70;30.05;;;;;;;-2.34;89.34;98944.09;1642044;86;20994;-87
2022/11/20 10:49:43;;;;;;;49.33;29.92;;;;;;;-2.22;89.75;98945.70;1604186;88;20984;-87
2022/11/20 10:52:15;;;;;;;57.45;33.88;;;;;;;-1.94;90.18;98949.30;1633847;86;22404;-87
2022/11/20 10:54:56;;;;;;;61.40;37.83;;;;;;;-1.59;90.59;98948.53;1634704;86;20983;-86
2022/11/20 10:57:49;;;;;;;67.45;42.70;;;;;;;-1.26;90.28;98946.87;1612697;88;20921;-86
2022/11/20 11:00:17;;;;;;;64.27;40.15;;;;;;;-1.04;90.13;98943.61;1628653;86;21010;-86
2022/11/20 11:02:52;;;;;;;69.90;39.75;;;;;;;-0.89;89.82;98938.30;1655105;85;20973;-88
2022/11/20 11:05:33;;;;;;;67.58;38.88;;;;;;;-0.77;89.78;98940.69;1653529;85;21951;-88
2022/11/20 11:08:00;;;;;;;60.35;39.73;;;;;;;-0.58;89.97;98928.89;1646782;85;20935;-88
2022/11/20 11:10:56;;;;;;;71.07;44.40;;;;;;;-0.46;89.73;98923.12;1651117;86;20982;-87
2022/11/20 11:13:27;;;;;;;68.52;39.15;;;;;;;-0.37;89.56;98917.00;1660335;85;20967;-88
2022/11/20 11:15:54;;;;;;;70.65;43.20;;;;;;;-0.36;89.24;98924.29;1652511;85;21014;-88
2022/11/20 11:18:31;;;;;;;68.07;40.43;;;;;;;-0.43;88.97;98918.39;1658151;85;21069;-88
2022/11/20 11:21:06;;;;;;;57.53;34.90;;;;;;;-0.49;88.87;98917.20;1685846;83;21054;-87
2022/11/20 11:23:43;;;;;;;59.13;34.18;;;;;;;-0.56;88.80;98913.03;1701178;83;20883;-88
2022/11/20 11:26:23;;;;;;;51.23;31.30;;;;;;;-0.60;88.58;98904.98;1679657;84;20926;-88
2022/11/20 11:29:01;;;;;;;46.90;29.77;;;;;;;-0.86;88.09;98904.94;1692003;83;21001;-88
2022/11/20 11:31:35;;;;;;;47.13;28.70;;;;;;;-1.08;88.15;98909.50;1659636;84;21141;-90
2022/11/20 11:34:14;;;;;;;47.20;30.45;;;;;;;-1.25;88.44;98907.16;1696582;83;20947;-89
2022/11/20 11:36:42;;;;;;;50.78;29.67;;;;;;;-1.36;88.50;98900.05;1696612;84;20993;-89
2022/11/20 11:39:19;;;;;;;45.92;29.98;;;;;;;-1.43;88.69;98900.97;1690029;83;22027;-84